createdAt,value
2018-08-04T00:01:38.222Z,98509.48
2018-08-04T00:03:50.443Z,98505.69
2018-08-04T00:06:02.698Z,98501.71
2018-08-04T00:08:15.009Z,98502.53
2018-08-04T00:10:27.243Z,98503.88
2018-08-04T00:12:40.143Z,98501.57
2018-08-04T00:14:52.348Z,98493.47
2018-08-04T00:17:04.767Z,98503.42
2018-08-04T00:19:17.023Z,98499.46
2018-08-04T00:21:29.290Z,98501.94
2018-08-04T00:23:41.508Z,98495.95
2018-08-04T00:25:53.794Z,98499.93
2018-08-04T00:28:06.039Z,98494.63
2018-08-04T00:30:18.310Z,98495.62
2018-08-04T00:32:30.636Z,98499.60
2018-08-04T00:34:42.830Z,98504.75
2018-08-04T00:36:55.078Z,98502.93
2018-08-04T00:39:07.331Z,98507.91
2018-08-04T00:41:19.622Z,98510.20
2018-08-04T00:43:31.831Z,98508.38
2018-08-04T00:45:44.079Z,98515.01
2018-08-04T00:47:56.336Z,98510.38
2018-08-04T00:50:09.609Z,98516.83
2018-08-04T00:52:21.842Z,98511.88
2018-08-04T00:54:34.091Z,98501.59
2018-08-04T00:56:46.332Z,98505.40
2018-08-04T00:58:58.590Z,98512.53
2018-08-04T01:01:10.797Z,98506.73
2018-08-04T01:03:23.044Z,98504.92
2018-08-04T01:05:35.308Z,98502.72
2018-08-04T01:07:47.546Z,98499.43
2018-08-04T01:10:02.770Z,98497.78
2018-08-04T01:12:15.074Z,98488.33
2018-08-04T01:14:27.310Z,98490.13
2018-08-04T01:16:39.560Z,98491.46
2018-08-04T01:18:51.767Z,98497.91
2018-08-04T01:21:03.999Z,98501.88
2018-08-04T01:23:16.225Z,98496.26
2018-08-04T01:25:28.459Z,98494.40
2018-08-04T01:27:40.696Z,98501.52
2018-08-04T01:29:52.948Z,98495.22
2018-08-04T01:32:05.158Z,98497.55
2018-08-04T01:34:17.364Z,98493.07
2018-08-04T01:36:29.582Z,98491.42
2018-08-04T01:38:41.800Z,98494.07
2018-08-04T01:40:54.046Z,98490.74
2018-08-04T01:43:06.274Z,98492.87
2018-08-04T01:45:18.523Z,98486.08
2018-08-04T01:47:30.759Z,98482.89
2018-08-04T01:49:43.007Z,98493.38
2018-08-04T01:51:55.243Z,98484.94
2018-08-04T01:54:07.473Z,98482.97
2018-08-04T01:56:19.658Z,98480.32
2018-08-04T01:58:31.882Z,98478.17
2018-08-04T02:00:44.139Z,98480.14
2018-08-04T02:02:56.392Z,98481.25
2018-08-04T02:05:08.685Z,98474.29
2018-08-04T02:07:20.974Z,98470.77
2018-08-04T02:09:33.178Z,98472.39
2018-08-04T02:11:45.366Z,98477.50
2018-08-04T02:13:57.609Z,98470.75
2018-08-04T02:16:09.968Z,98472.27
2018-08-04T02:18:22.191Z,98473.41
2018-08-04T02:20:34.411Z,98472.27
2018-08-04T02:22:46.614Z,98476.56
2018-08-04T02:24:58.903Z,98476.25
2018-08-04T02:27:11.064Z,98473.28
2018-08-04T02:29:23.283Z,98477.07
2018-08-04T02:31:35.479Z,98474.42
2018-08-04T02:33:47.723Z,98473.92
2018-08-04T02:35:59.915Z,98469.93
2018-08-04T02:38:12.136Z,98471.58
2018-08-04T02:40:24.387Z,98469.42
2018-08-04T02:42:36.584Z,98473.84
2018-08-04T02:44:48.810Z,98481.95
2018-08-04T02:47:01.047Z,98473.19
2018-08-04T02:49:13.332Z,98476.97
2018-08-04T02:51:25.506Z,98477.28
2018-08-04T02:53:37.704Z,98473.47
2018-08-04T02:55:49.927Z,98477.05
2018-08-04T02:58:02.139Z,98470.91
2018-08-04T03:00:14.410Z,98471.05
2018-08-04T03:02:26.583Z,98466.08
2018-08-04T03:04:38.874Z,98466.27
2018-08-04T03:06:51.070Z,98466.45
2018-08-04T03:09:05.618Z,98465.27
2018-08-04T03:11:17.830Z,98468.73
2018-08-04T03:13:30.047Z,98464.92
2018-08-04T03:15:42.278Z,98467.88
2018-08-04T03:17:54.471Z,98465.52
2018-08-04T03:20:07.091Z,98466.70
2018-08-04T03:22:19.329Z,98467.84
2018-08-04T03:24:31.543Z,98467.15
2018-08-04T03:26:43.752Z,98473.11
2018-08-04T03:28:56.282Z,98468.31
2018-08-04T03:31:08.539Z,98471.97
2018-08-04T03:33:20.734Z,98473.30
2018-08-04T03:35:33.003Z,98475.58
2018-08-04T03:37:45.188Z,98474.56
2018-08-04T03:39:57.419Z,98479.20
2018-08-04T03:42:09.654Z,98481.33
2018-08-04T03:44:21.858Z,98480.00
2018-08-04T03:46:34.170Z,98481.82
2018-08-04T03:48:46.349Z,98478.81
2018-08-04T03:50:58.597Z,98482.13
2018-08-04T03:53:10.838Z,98485.22
2018-08-04T03:55:23.086Z,98483.87
2018-08-04T03:57:35.303Z,98481.09
2018-08-04T03:59:47.613Z,98485.36
2018-08-04T04:01:59.787Z,98484.13
2018-08-04T04:04:12.031Z,98488.03
2018-08-04T04:06:24.267Z,98490.13
2018-08-04T04:08:36.489Z,98489.38
2018-08-04T04:10:48.695Z,98495.45
2018-08-04T04:13:00.973Z,98494.80
2018-08-04T04:15:13.181Z,98494.70
2018-08-04T04:17:25.427Z,98494.53
2018-08-04T04:19:37.605Z,98496.02
2018-08-04T04:21:49.831Z,98502.09
2018-08-04T04:24:02.031Z,98496.81
2018-08-04T04:26:14.204Z,98492.85
2018-08-04T04:28:26.426Z,98494.70
2018-08-04T04:30:38.612Z,98498.72
2018-08-04T04:32:50.839Z,98502.08
2018-08-04T04:35:03.045Z,98504.11
2018-08-04T04:37:15.278Z,98501.03
2018-08-04T04:39:27.482Z,98498.59
2018-08-04T04:41:40.375Z,98498.59
2018-08-04T04:43:52.810Z,98497.28
2018-08-04T04:46:05.041Z,98504.05
2018-08-04T04:48:17.265Z,98508.02
2018-08-04T04:50:29.523Z,98510.19
2018-08-04T04:52:41.800Z,98507.61
2018-08-04T04:54:54.018Z,98504.55
2018-08-04T04:57:06.238Z,98505.94
2018-08-04T04:59:18.498Z,98513.09
2018-08-04T05:01:30.759Z,98514.28
2018-08-04T05:03:43.016Z,98510.84
2018-08-04T05:05:55.266Z,98517.67
2018-08-04T05:08:07.455Z,98515.06
2018-08-04T05:10:19.678Z,98520.42
2018-08-04T05:12:31.871Z,98518.94
2018-08-04T05:14:44.116Z,98517.66
2018-08-04T05:16:56.360Z,98520.36
2018-08-04T05:19:08.693Z,98518.73
2018-08-04T05:21:20.883Z,98524.35
2018-08-04T05:23:33.051Z,98520.41
2018-08-04T05:25:45.254Z,98523.72
2018-08-04T05:27:57.466Z,98520.61
2018-08-04T05:30:09.727Z,98522.76
2018-08-04T05:32:21.920Z,98526.09
2018-08-04T05:34:34.144Z,98518.46
2018-08-04T05:36:46.391Z,98524.93
2018-08-04T05:38:58.594Z,98519.68
2018-08-04T05:41:10.800Z,98527.94
2018-08-04T05:43:23.091Z,98528.45
2018-08-04T05:45:35.220Z,98526.59
2018-08-04T05:47:47.444Z,98533.36
2018-08-04T05:49:59.650Z,98525.72
2018-08-04T05:52:11.910Z,98531.03
2018-08-04T05:54:24.194Z,98529.03
2018-08-04T05:56:36.407Z,98533.98
2018-08-04T05:58:48.600Z,98535.13
2018-08-04T06:01:00.816Z,98535.77
2018-08-04T06:03:13.116Z,98530.27
2018-08-04T06:05:25.302Z,98532.06
2018-08-04T06:07:37.603Z,98538.65
2018-08-04T06:09:49.811Z,98533.80
2018-08-04T06:12:02.022Z,98534.12
2018-08-04T06:14:14.256Z,98532.42
2018-08-04T06:16:26.499Z,98535.39
2018-08-04T06:18:38.706Z,98528.76
2018-08-04T06:20:51.030Z,98534.36
2018-08-04T06:23:03.202Z,98537.66
2018-08-04T06:25:15.447Z,98533.45
2018-08-04T06:27:27.669Z,98533.25
2018-08-04T06:29:39.862Z,98540.05
2018-08-04T06:31:52.100Z,98538.22
2018-08-04T06:34:04.832Z,98541.58
2018-08-04T06:36:17.042Z,98538.45
2018-08-04T06:38:29.243Z,98541.04
2018-08-04T06:40:41.476Z,98543.44
2018-08-04T06:42:53.710Z,98547.31
2018-08-04T06:45:06.012Z,98547.66
2018-08-04T06:47:18.213Z,98546.70
2018-08-04T06:49:30.552Z,98550.91
2018-08-04T06:51:42.762Z,98548.42
2018-08-04T06:53:55.063Z,98546.25
2018-08-04T06:56:07.342Z,98540.55
2018-08-04T06:58:19.592Z,98541.92
2018-08-04T07:00:31.839Z,98539.42
2018-08-04T07:02:44.060Z,98538.54
2018-08-04T07:04:56.296Z,98542.91
2018-08-04T07:07:09.215Z,98545.69
2018-08-04T07:09:21.431Z,98544.35
2018-08-04T07:11:33.668Z,98543.17
2018-08-04T07:13:45.986Z,98538.56
2018-08-04T07:15:58.225Z,98541.78
2018-08-04T07:18:10.438Z,98546.23
2018-08-04T07:20:22.722Z,98536.37
2018-08-04T07:22:34.999Z,98541.09
2018-08-04T07:24:47.217Z,98540.56
2018-08-04T07:26:59.438Z,98541.52
2018-08-04T07:29:11.742Z,98536.16
2018-08-04T07:40:43.303Z,98533.44
2018-08-04T07:42:55.528Z,98525.49
2018-08-04T07:45:07.829Z,98530.97
2018-08-04T07:47:20.109Z,98535.30
2018-08-04T07:49:32.330Z,98530.25
2018-08-04T07:51:45.487Z,98535.59
2018-08-04T07:53:57.779Z,98532.18
2018-08-04T07:56:10.064Z,98531.53
2018-08-04T07:58:22.317Z,98528.02
2018-08-04T08:00:34.538Z,98532.38
2018-08-04T08:02:46.836Z,98534.95
2018-08-04T08:04:59.125Z,98536.27
2018-08-04T08:07:11.365Z,98532.62
2018-08-04T08:09:23.635Z,98528.54
2018-08-04T08:11:35.975Z,98526.12
2018-08-04T08:13:48.207Z,98526.80
2018-08-04T08:16:00.439Z,98523.17
2018-08-04T08:18:12.692Z,98525.59
2018-08-04T08:20:24.970Z,98532.17
2018-08-04T08:22:40.663Z,98528.20
2018-08-04T08:24:52.997Z,98526.78
2018-08-04T08:27:05.310Z,98530.00
2018-08-04T08:29:17.543Z,98529.68
2018-08-04T08:31:29.846Z,98531.05
2018-08-04T08:33:44.374Z,98528.36
2018-08-04T08:35:56.586Z,98530.75
2018-08-04T08:38:08.860Z,98529.21
2018-08-04T08:40:21.203Z,98528.45
2018-08-04T08:42:33.410Z,98529.97
2018-08-04T08:44:45.725Z,98527.22
2018-08-04T08:46:57.947Z,98529.70
2018-08-04T08:49:10.199Z,98525.39
2018-08-04T08:51:22.447Z,98525.78
2018-08-04T08:53:34.777Z,98525.02
2018-08-04T08:55:46.974Z,98522.86
2018-08-04T08:57:59.221Z,98524.55
2018-08-04T09:00:11.527Z,98522.92
2018-08-04T09:02:23.807Z,98521.73
2018-08-04T09:04:36.107Z,98521.94
2018-08-04T09:06:48.398Z,98519.05
2018-08-04T09:09:00.668Z,98514.37
2018-08-04T09:11:12.903Z,98515.14
2018-08-04T09:13:25.167Z,98517.20
2018-08-04T09:15:37.481Z,98516.75
2018-08-04T09:17:49.758Z,98522.63
2018-08-04T09:20:02.064Z,98517.77
2018-08-04T09:22:14.306Z,98517.75
2018-08-04T09:24:26.531Z,98511.88
2018-08-04T09:26:38.742Z,98507.00
2018-08-04T09:28:51.040Z,98506.91
2018-08-04T09:31:03.332Z,98504.39
2018-08-04T09:33:15.626Z,98507.37
2018-08-04T09:35:27.897Z,98506.70
2018-08-04T09:37:40.162Z,98499.71
2018-08-04T09:39:52.393Z,98498.76
2018-08-04T09:42:04.701Z,98495.42
2018-08-04T09:44:16.920Z,98500.87
2018-08-04T09:46:29.166Z,98491.66
2018-08-04T09:48:41.365Z,98490.77
2018-08-04T09:50:53.670Z,98492.75
2018-08-04T09:53:05.890Z,98478.67
2018-08-04T09:55:18.159Z,98480.61
2018-08-04T09:57:30.351Z,98477.66
2018-08-04T09:59:42.669Z,98477.72
2018-08-04T10:02:00.711Z,98475.38
2018-08-04T10:04:12.961Z,98474.75
2018-08-04T10:06:25.244Z,98475.15
2018-08-04T10:08:37.495Z,98470.72
2018-08-04T10:10:49.801Z,98476.68
2018-08-04T10:13:02.131Z,98476.84
2018-08-04T10:15:15.351Z,98473.84
2018-08-04T10:17:27.669Z,98476.80
2018-08-04T10:19:40.576Z,98476.48
2018-08-04T10:21:52.875Z,98480.17
2018-08-04T10:24:05.306Z,98471.14
2018-08-04T10:26:17.592Z,98473.44
2018-08-04T10:28:29.846Z,98472.09
2018-08-04T10:30:42.059Z,98471.97
2018-08-04T10:32:54.410Z,98462.63
2018-08-04T10:35:07.510Z,98463.82
2018-08-04T10:37:19.809Z,98465.03
2018-08-04T10:39:32.143Z,98468.75
2018-08-04T10:41:44.323Z,98463.94
2018-08-04T10:43:56.552Z,98461.52
2018-08-04T10:46:08.864Z,98459.40
2018-08-04T10:48:21.208Z,98457.30
2018-08-04T10:50:33.462Z,98461.63
2018-08-04T10:52:45.807Z,98462.61
2018-08-04T10:54:58.081Z,98462.42
2018-08-04T10:57:10.379Z,98455.47
2018-08-04T10:59:22.676Z,98452.59
2018-08-04T11:01:35.018Z,98445.51
2018-08-04T11:03:47.451Z,98442.00
2018-08-04T11:05:59.702Z,98440.48
2018-08-04T11:08:11.956Z,98441.88
2018-08-04T11:10:24.177Z,98437.52
2018-08-04T11:12:36.451Z,98435.25
2018-08-04T11:14:49.975Z,98446.66
2018-08-04T11:17:02.239Z,98442.69
2018-08-04T11:19:14.707Z,98440.34
2018-08-04T11:21:26.975Z,98436.88
2018-08-04T11:23:39.203Z,98440.81
2018-08-04T11:25:51.447Z,98437.38
2018-08-04T11:28:05.472Z,98436.80
2018-08-04T11:30:17.738Z,98438.47
2018-08-04T11:32:29.977Z,98437.70
2018-08-04T11:34:42.211Z,98441.89
2018-08-04T11:36:54.463Z,98432.77
2018-08-04T11:39:08.328Z,98429.73
2018-08-04T11:41:20.619Z,98427.42
2018-08-04T11:43:32.891Z,98432.19
2018-08-04T11:45:46.745Z,98425.97
2018-08-04T11:47:59.042Z,98425.05
2018-08-04T11:50:11.702Z,98425.92
2018-08-04T11:52:23.958Z,98427.62
2018-08-04T11:54:36.376Z,98424.77
2018-08-04T11:56:48.641Z,98427.85
2018-08-04T11:59:00.912Z,98420.94
2018-08-04T12:01:13.240Z,98427.20
2018-08-04T12:03:25.519Z,98425.14
2018-08-04T12:05:38.700Z,98423.58
2018-08-04T12:07:51.028Z,98413.54
2018-08-04T12:10:03.468Z,98409.81
2018-08-04T12:12:15.766Z,98407.20
2018-08-04T12:14:28.009Z,98405.68
2018-08-04T12:16:40.295Z,98401.19
2018-08-04T12:18:52.702Z,98403.09
2018-08-04T12:21:04.956Z,98406.44
2018-08-04T12:23:17.263Z,98398.67
2018-08-04T12:25:29.599Z,98408.86
2018-08-04T12:27:41.846Z,98407.13
2018-08-04T12:29:54.123Z,98397.53
2018-08-04T12:32:06.589Z,98397.63
2018-08-04T12:34:18.907Z,98395.47
2018-08-04T12:36:31.175Z,98394.23
2018-08-04T12:38:43.440Z,98388.62
2018-08-04T12:40:55.700Z,98394.09
2018-08-04T12:43:07.943Z,98397.50
2018-08-04T12:45:21.389Z,98393.00
2018-08-04T12:47:33.710Z,98395.22
2018-08-04T12:49:46.039Z,98389.59
2018-08-04T12:51:58.297Z,98387.97
2018-08-04T12:54:11.089Z,98389.14
2018-08-04T12:56:23.380Z,98383.30
2018-08-04T12:58:35.761Z,98380.42
2018-08-04T13:00:48.144Z,98374.53
2018-08-04T13:03:00.387Z,98378.85
2018-08-04T13:05:12.632Z,98370.78
2018-08-04T13:07:24.873Z,98376.70
2018-08-04T13:09:37.121Z,98371.30
2018-08-04T13:11:49.389Z,98371.52
2018-08-04T13:14:01.734Z,98372.31
2018-08-04T13:16:13.987Z,98359.12
2018-08-04T13:18:26.243Z,98362.37
2018-08-04T13:20:38.699Z,98365.34
2018-08-04T13:22:50.945Z,98372.31
2018-08-04T13:25:03.773Z,98373.95
2018-08-04T13:27:16.096Z,98371.70
2018-08-04T13:29:28.388Z,98369.53
2018-08-04T13:31:40.676Z,98360.83
2018-08-04T13:33:52.910Z,98366.14
2018-08-04T13:36:05.169Z,98361.01
2018-08-04T13:38:17.448Z,98360.95
2018-08-04T13:40:29.730Z,98360.45
2018-08-04T13:42:42.047Z,98354.20
2018-08-04T13:44:54.304Z,98362.08
2018-08-04T13:47:07.304Z,98354.30
2018-08-04T13:49:19.558Z,98348.08
2018-08-04T13:51:31.954Z,98352.91
2018-08-04T13:53:44.206Z,98342.85
2018-08-04T13:55:57.036Z,98348.30
2018-08-04T13:58:09.320Z,98355.05
2018-08-04T14:00:21.591Z,98354.53
2018-08-04T14:02:33.999Z,98355.42
2018-08-04T14:04:46.217Z,98355.42
2018-08-04T14:06:58.604Z,98364.07
2018-08-04T14:09:11.403Z,98358.09
2018-08-04T14:11:24.244Z,98358.09
2018-08-04T14:13:37.092Z,98352.36
2018-08-04T14:15:49.285Z,98355.23
2018-08-04T14:18:01.540Z,98353.88
2018-08-04T14:20:13.802Z,98352.16
2018-08-04T14:22:26.624Z,98355.41
2018-08-04T14:24:38.977Z,98352.88
2018-08-04T14:26:51.228Z,98352.52
2018-08-04T14:29:03.592Z,98349.00
2018-08-04T14:31:15.839Z,98348.95
2018-08-04T14:33:28.095Z,98346.26
2018-08-04T14:35:40.296Z,98350.30
2018-08-04T14:37:52.542Z,98350.30
2018-08-04T14:40:04.832Z,98347.02
2018-08-04T14:42:17.051Z,98353.77
2018-08-04T14:44:30.596Z,98352.95
2018-08-04T14:46:42.823Z,98349.23
2018-08-04T14:48:56.014Z,98351.59
2018-08-04T14:51:08.311Z,98342.20
2018-08-04T14:53:20.709Z,98340.75
2018-08-04T14:55:32.951Z,98340.75
2018-08-04T14:57:45.231Z,98336.49
2018-08-04T15:03:23.681Z,98334.96
2018-08-04T15:05:35.999Z,98337.13
2018-08-04T15:07:48.232Z,98335.17
2018-08-04T15:10:00.535Z,98329.45
2018-08-04T15:12:12.894Z,98325.95
2018-08-04T15:14:25.163Z,98321.91
2018-08-04T15:16:40.454Z,98324.33
2018-08-04T15:18:58.931Z,98319.88
2018-08-04T15:21:24.319Z,98320.82
2018-08-04T15:23:39.230Z,98324.20
2018-08-04T15:25:55.335Z,98314.77
2018-08-04T15:28:22.313Z,98316.27
2018-08-04T15:30:36.207Z,98308.25
2018-08-04T15:32:49.688Z,98307.05
2018-08-04T15:35:02.054Z,98304.36
2018-08-04T15:37:14.540Z,98301.66
2018-08-04T15:39:26.808Z,98307.59
2018-08-04T15:41:39.135Z,98306.47
2018-08-04T15:43:51.311Z,98301.89
2018-08-04T15:46:03.598Z,98308.41
2018-08-04T15:48:16.775Z,98300.59
2018-08-04T15:50:29.058Z,98300.52
2018-08-04T15:52:41.327Z,98299.72
2018-08-04T15:54:53.581Z,98301.55
2018-08-04T15:57:05.999Z,98307.54
2018-08-04T15:59:18.294Z,98302.14
2018-08-04T16:01:30.608Z,98306.27
2018-08-04T16:03:42.926Z,98308.09
2018-08-04T16:05:55.106Z,98309.16
2018-08-04T16:08:07.361Z,98307.26
2018-08-04T16:10:19.654Z,98311.98
2018-08-04T16:12:31.891Z,98309.73
2018-08-04T16:14:44.164Z,98310.97
2018-08-04T16:16:56.430Z,98315.97
2018-08-04T16:19:09.040Z,98326.20
2018-08-04T16:21:21.238Z,98322.91
2018-08-04T16:23:33.529Z,98330.09
2018-08-04T16:25:45.773Z,98338.19
2018-08-04T16:27:58.058Z,98335.23
2018-08-04T16:30:10.728Z,98330.80
2018-08-04T16:32:22.938Z,98333.88
2018-08-04T16:34:35.222Z,98337.30
2018-08-04T16:36:47.451Z,98343.44
2018-08-04T16:38:59.675Z,98342.69
2018-08-04T16:41:11.935Z,98339.94
2018-08-04T16:43:24.140Z,98337.77
2018-08-04T16:45:36.374Z,98340.41
2018-08-04T16:47:48.623Z,98340.00
2018-08-04T16:50:00.840Z,98337.64
2018-08-04T16:52:13.084Z,98342.34
2018-08-04T16:54:25.328Z,98336.08
2018-08-04T16:56:37.566Z,98335.17
2018-08-04T16:58:49.780Z,98333.48
2018-08-04T17:01:02.026Z,98337.97
2018-08-04T17:03:14.300Z,98338.25
2018-08-04T17:05:26.517Z,98337.37
2018-08-04T17:07:38.781Z,98343.51
2018-08-04T17:09:51.000Z,98343.16
2018-08-04T17:12:03.292Z,98347.20
2018-08-04T17:14:15.525Z,98343.31
2018-08-04T17:16:27.772Z,98344.88
2018-08-04T17:18:39.994Z,98349.73
2018-08-04T17:20:52.210Z,98355.20
2018-08-04T17:23:04.470Z,98357.30
2018-08-04T17:25:16.678Z,98362.41
2018-08-04T17:27:28.926Z,98362.05
2018-08-04T17:29:41.147Z,98361.77
2018-08-04T17:31:53.401Z,98369.97
2018-08-04T17:34:05.577Z,98369.23
2018-08-04T17:36:17.886Z,98370.02
2018-08-04T17:38:30.119Z,98369.63
2018-08-04T17:40:42.303Z,98371.06
2018-08-04T17:42:54.581Z,98374.75
2018-08-04T17:45:06.819Z,98378.64
2018-08-04T17:47:19.012Z,98379.27
2018-08-04T17:49:31.230Z,98380.22
2018-08-04T17:51:43.458Z,98377.34
2018-08-04T17:53:56.799Z,98385.13
2018-08-04T17:56:09.012Z,98385.05
2018-08-04T17:58:21.230Z,98384.48
2018-08-04T18:00:33.498Z,98389.05
2018-08-04T18:02:45.746Z,98385.67
2018-08-04T18:04:57.964Z,98383.39
2018-08-04T18:07:10.166Z,98387.88
2018-08-04T18:09:22.399Z,98388.50
2018-08-04T18:11:34.618Z,98386.50
2018-08-04T18:13:46.837Z,98389.27
2018-08-04T18:15:59.066Z,98394.13
2018-08-04T18:18:11.266Z,98389.12
2018-08-04T18:20:23.545Z,98400.08
2018-08-04T18:22:35.814Z,98393.80
2018-08-04T18:24:48.115Z,98390.45
2018-08-04T18:27:00.370Z,98397.25
2018-08-04T18:29:12.636Z,98395.69
2018-08-04T18:31:24.850Z,98399.87
2018-08-04T18:33:37.097Z,98398.31
2018-08-04T18:35:49.340Z,98391.22
2018-08-04T18:38:01.567Z,98395.55
2018-08-04T18:40:13.802Z,98395.25
2018-08-04T18:42:26.037Z,98395.47
2018-08-04T18:44:38.318Z,98395.19
2018-08-04T18:46:50.496Z,98397.55
2018-08-04T18:49:02.731Z,98398.95
2018-08-04T18:51:14.951Z,98395.55
2018-08-04T18:53:27.166Z,98399.78
2018-08-04T18:55:39.403Z,98404.16
2018-08-04T18:57:51.665Z,98406.52
2018-08-04T19:00:04.577Z,98407.84
2018-08-04T19:02:16.847Z,98407.60
2018-08-04T19:04:29.083Z,98413.23
2018-08-04T19:06:41.367Z,98409.92
2018-08-04T19:08:53.641Z,98415.22
2018-08-04T19:11:05.874Z,98415.87
2018-08-04T19:13:18.102Z,98409.48
2018-08-04T19:15:30.272Z,98419.48
2018-08-04T19:17:42.550Z,98423.61
2018-08-04T19:19:54.746Z,98421.02
2018-08-04T19:22:07.054Z,98419.60
2018-08-04T19:24:19.258Z,98416.48
2018-08-04T19:26:31.505Z,98419.67
2018-08-04T19:28:43.738Z,98419.67
2018-08-04T19:30:55.937Z,98418.43
2018-08-04T19:33:08.145Z,98420.99
2018-08-04T19:35:20.406Z,98422.73
2018-08-04T19:37:32.687Z,98427.67
2018-08-04T19:39:44.919Z,98424.38
2018-08-04T19:41:57.144Z,98427.67
2018-08-04T19:44:09.474Z,98428.77
2018-08-04T19:46:21.723Z,98428.72
2018-08-04T19:48:34.245Z,98428.20
2018-08-04T19:50:46.477Z,98434.64
2018-08-04T19:52:58.687Z,98436.41
2018-08-04T19:55:10.913Z,98442.42
2018-08-04T19:57:23.171Z,98436.20
2018-08-04T19:59:35.411Z,98442.29
2018-08-04T20:01:47.657Z,98446.34
2018-08-04T20:03:59.882Z,98447.98
2018-08-04T20:06:12.075Z,98446.95
2018-08-04T20:08:25.778Z,98448.16
2018-08-04T20:10:37.973Z,98452.94
2018-08-04T20:12:50.223Z,98453.67
2018-08-04T20:15:02.513Z,98457.88
2018-08-04T20:17:14.745Z,98452.92
2018-08-04T20:19:27.018Z,98462.66
2018-08-04T20:21:39.226Z,98459.03
2018-08-04T20:23:51.402Z,98458.73
2018-08-04T20:26:03.675Z,98457.86
2018-08-04T20:28:15.891Z,98464.75
2018-08-04T20:30:28.127Z,98457.16
2018-08-04T20:32:40.368Z,98460.33
2018-08-04T20:34:52.628Z,98459.66
2018-08-04T20:37:04.884Z,98454.39
2018-08-04T20:39:17.091Z,98459.08
2018-08-04T20:41:29.302Z,98459.28
2018-08-04T20:43:41.462Z,98453.37
2018-08-04T20:45:53.695Z,98451.36
2018-08-04T20:48:05.896Z,98449.69
2018-08-04T20:50:18.174Z,98450.34
2018-08-04T20:52:30.444Z,98457.07
2018-08-04T20:54:42.660Z,98459.73
2018-08-04T20:56:54.959Z,98457.66
2018-08-04T20:59:07.174Z,98457.09
2018-08-04T21:01:35.495Z,98453.70
2018-08-04T21:03:47.734Z,98453.63
2018-08-04T21:06:00.382Z,98449.63
2018-08-04T21:08:12.615Z,98454.96
2018-08-04T21:10:24.859Z,98447.74
2018-08-04T21:12:37.102Z,98450.95
2018-08-04T21:14:49.835Z,98450.84
2018-08-04T21:17:02.062Z,98450.64
2018-08-04T21:19:14.564Z,98455.45
2018-08-04T21:21:26.747Z,98451.97
2018-08-04T21:23:39.002Z,98447.16
2018-08-04T21:25:51.203Z,98442.48
2018-08-04T21:28:03.453Z,98441.15
2018-08-04T21:30:15.684Z,98444.69
2018-08-04T21:32:27.856Z,98447.41
2018-08-04T21:34:40.171Z,98446.45
2018-08-04T21:36:52.393Z,98444.69
2018-08-04T21:39:07.243Z,98445.51
2018-08-04T21:41:19.454Z,98454.42
2018-08-04T21:43:31.679Z,98454.28
2018-08-04T21:45:43.985Z,98452.08
2018-08-04T21:47:56.183Z,98451.45
2018-08-04T21:50:08.561Z,98458.27
2018-08-04T21:52:20.807Z,98457.80
2018-08-04T21:54:32.946Z,98464.05
2018-08-04T21:56:45.561Z,98458.67
2018-08-04T21:58:57.750Z,98458.67
2018-08-04T22:01:12.834Z,98462.69
2018-08-04T22:03:25.074Z,98459.70
2018-08-04T22:05:37.275Z,98465.34
2018-08-04T22:08:01.125Z,98464.52
2018-08-04T22:10:13.883Z,98465.75
2018-08-04T22:12:26.166Z,98461.35
2018-08-04T22:14:38.334Z,98462.27
2018-08-04T22:16:50.579Z,98459.82
2018-08-04T22:19:02.936Z,98463.95
2018-08-04T22:21:15.303Z,98467.29
2018-08-04T22:23:27.625Z,98466.47
2018-08-04T22:25:39.848Z,98465.54
2018-08-04T22:27:52.316Z,98466.41
2018-08-04T22:30:05.909Z,98475.59
2018-08-04T22:32:18.148Z,98473.84
2018-08-04T22:34:30.358Z,98480.12
2018-08-04T22:36:42.626Z,98478.02
2018-08-04T22:38:54.795Z,98478.06
2018-08-04T22:41:06.975Z,98470.13
2018-08-04T22:43:19.207Z,98475.52
2018-08-04T22:46:00.305Z,98468.08
2018-08-04T22:48:12.631Z,98471.24
2018-08-04T22:50:24.979Z,98473.74
2018-08-04T22:52:37.534Z,98465.00
2018-08-04T22:54:49.775Z,98468.08
2018-08-04T22:57:07.341Z,98472.09
2018-08-04T22:59:19.526Z,98467.98
2018-08-04T23:01:31.738Z,98472.70
2018-08-04T23:05:56.279Z,98471.75
2018-08-04T23:08:09.305Z,98473.92
2018-08-04T23:10:21.530Z,98468.13
2018-08-04T23:12:33.732Z,98469.67
2018-08-04T23:14:45.995Z,98466.33
2018-08-04T23:16:58.183Z,98470.86
2018-08-04T23:19:10.402Z,98470.20
2018-08-04T23:21:22.623Z,98477.20
2018-08-04T23:23:34.850Z,98475.88
2018-08-04T23:25:47.086Z,98469.47
2018-08-04T23:27:59.275Z,98480.06
2018-08-04T23:30:11.531Z,98466.60
2018-08-04T23:32:23.727Z,98475.23
2018-08-04T23:34:35.935Z,98475.23
2018-08-04T23:36:48.785Z,98479.03
2018-08-04T23:39:00.987Z,98478.55
2018-08-04T23:41:13.508Z,98478.90
2018-08-04T23:43:25.717Z,98481.20
2018-08-04T23:45:37.899Z,98486.85
2018-08-04T23:47:50.129Z,98483.73
2018-08-04T23:50:02.670Z,98486.53
2018-08-04T23:52:15.190Z,98477.58
2018-08-04T23:54:27.435Z,98477.43
2018-08-04T23:56:39.717Z,98476.59
2018-08-04T23:58:51.906Z,98479.44
